createdAt,value
2018-11-11T00:01:31.034Z,11.73
2018-11-11T00:04:09.986Z,15.83
2018-11-11T00:06:47.935Z,12.97
2018-11-11T00:09:24.444Z,9.93
2018-11-11T00:12:01.774Z,10.10
2018-11-11T00:14:39.563Z,9.80
2018-11-11T00:17:17.196Z,10.50
2018-11-11T00:19:52.659Z,10.40
2018-11-11T00:22:29.274Z,11.83
2018-11-11T00:25:04.671Z,12.73
2018-11-11T00:27:41.902Z,10.47
2018-11-11T00:30:20.166Z,14.28
2018-11-11T00:32:53.428Z,18.03
2018-11-11T00:35:29.865Z,16.13
2018-11-11T00:38:05.077Z,19.87
2018-11-11T00:40:40.536Z,19.30
2018-11-11T00:43:18.127Z,20.13
2018-11-11T00:45:55.831Z,21.63
2018-11-11T00:48:32.977Z,18.10
2018-11-11T00:51:09.095Z,19.53
2018-11-11T00:53:44.397Z,22.77
2018-11-11T00:56:20.958Z,21.83
2018-11-11T00:58:59.639Z,19.83
2018-11-11T01:01:37.550Z,21.60
2018-11-11T01:04:14.122Z,20.17
2018-11-11T01:06:51.231Z,25.40
2018-11-11T01:09:28.731Z,25.53
2018-11-11T01:12:06.108Z,21.07
2018-11-11T01:14:43.492Z,18.03
2018-11-11T01:17:17.495Z,19.93
2018-11-11T01:19:57.243Z,20.37
2018-11-11T01:22:34.199Z,18.67
2018-11-11T01:25:12.103Z,18.20
2018-11-11T01:27:41.462Z,16.53
2018-11-11T01:30:10.832Z,15.50
2018-11-11T01:32:40.170Z,19.87
2018-11-11T01:35:11.992Z,19.27
2018-11-11T01:37:41.986Z,17.35
2018-11-11T01:40:11.336Z,14.40
2018-11-11T01:42:40.684Z,12.53
2018-11-11T01:45:14.914Z,11.93
2018-11-11T01:47:44.958Z,13.27
2018-11-11T01:50:14.398Z,13.55
2018-11-11T01:52:43.718Z,14.83
2018-11-11T01:55:13.609Z,14.07
2018-11-11T01:57:43.057Z,12.33
2018-11-11T02:00:15.029Z,15.05
2018-11-11T02:02:45.094Z,16.40
2018-11-11T02:05:14.733Z,16.80
2018-11-11T02:07:45.036Z,19.33
2018-11-11T02:10:14.349Z,17.97
2018-11-11T02:12:44.722Z,18.33
2018-11-11T02:15:15.101Z,20.50
2018-11-11T02:17:44.475Z,22.27
2018-11-11T02:20:15.146Z,22.90
2018-11-11T02:22:45.162Z,28.50
2018-11-11T02:25:14.485Z,34.70
2018-11-11T02:27:43.857Z,33.10
2018-11-11T02:30:21.619Z,30.43
2018-11-11T02:32:51.227Z,35.57
2018-11-11T02:35:20.552Z,35.58
2018-11-11T02:37:53.215Z,28.87
2018-11-11T02:40:22.538Z,31.97
2018-11-11T02:42:51.845Z,30.30
2018-11-11T02:45:21.482Z,29.80
2018-11-11T02:47:50.880Z,27.97
2018-11-11T02:50:20.631Z,26.68
2018-11-11T02:52:49.954Z,25.90
2018-11-11T02:55:19.280Z,26.90
2018-11-11T02:57:48.898Z,26.23
2018-11-11T03:00:20.242Z,23.50
2018-11-11T03:02:50.338Z,22.73
2018-11-11T03:05:20.153Z,25.43
2018-11-11T03:07:49.483Z,22.13
2018-11-11T03:10:19.185Z,22.25
2018-11-11T03:12:49.491Z,23.37
2018-11-11T03:15:19.190Z,24.23
2018-11-11T03:17:48.518Z,27.77
2018-11-11T03:20:18.149Z,24.10
2018-11-11T03:22:47.517Z,25.17
2018-11-11T03:25:17.461Z,21.17
2018-11-11T03:27:46.805Z,23.43
2018-11-11T03:30:17.180Z,19.57
2018-11-11T03:32:46.549Z,19.40
2018-11-11T03:35:16.012Z,21.57
2018-11-11T03:37:46.049Z,20.03
2018-11-11T03:40:16.789Z,20.87
2018-11-11T03:42:46.422Z,17.70
2018-11-11T03:45:17.065Z,19.03
2018-11-11T03:47:47.372Z,17.83
2018-11-11T03:50:16.731Z,18.25
2018-11-11T03:52:46.303Z,18.90
2018-11-11T03:55:15.666Z,19.75
2018-11-11T03:57:45.003Z,19.47
2018-11-11T04:00:15.381Z,18.73
2018-11-11T04:02:44.708Z,18.37
2018-11-11T04:05:15.350Z,19.55
2018-11-11T04:07:44.662Z,17.07
2018-11-11T04:10:15.601Z,17.53
2018-11-11T04:12:45.290Z,14.13
2018-11-11T04:15:15.915Z,17.55
2018-11-11T04:17:45.365Z,17.07
2018-11-11T04:20:16.071Z,15.87
2018-11-11T04:22:45.392Z,15.00
2018-11-11T04:25:15.363Z,15.38
2018-11-11T04:27:44.753Z,15.60
2018-11-11T04:30:15.011Z,14.03
2018-11-11T04:32:44.331Z,16.17
2018-11-11T04:35:13.971Z,17.10
2018-11-11T04:37:43.310Z,16.63
2018-11-11T04:40:13.523Z,12.93
2018-11-11T04:42:42.953Z,14.60
2018-11-11T04:45:14.310Z,14.30
2018-11-11T04:47:44.284Z,13.57
2018-11-11T04:50:14.756Z,15.08
2018-11-11T04:52:44.948Z,13.27
2018-11-11T04:55:14.304Z,15.93
2018-11-11T04:57:44.298Z,13.90
2018-11-11T05:00:14.570Z,13.15
2018-11-11T05:02:44.070Z,15.33
2018-11-11T05:05:14.115Z,14.60
2018-11-11T05:07:43.469Z,16.27
2018-11-11T05:10:13.383Z,13.32
2018-11-11T05:12:42.753Z,11.80
2018-11-11T05:15:13.149Z,14.23
2018-11-11T05:17:42.734Z,14.67
2018-11-11T05:20:12.975Z,12.83
2018-11-11T05:22:42.803Z,11.30
2018-11-11T05:25:13.972Z,14.80
2018-11-11T05:27:43.886Z,13.03
2018-11-11T05:30:14.083Z,12.53
2018-11-11T05:32:43.565Z,11.63
2018-11-11T05:35:13.341Z,15.87
2018-11-11T05:37:43.314Z,13.77
2018-11-11T05:40:13.405Z,14.23
2018-11-11T05:42:43.321Z,12.10
2018-11-11T05:45:13.927Z,10.98
2018-11-11T05:47:43.866Z,13.43
2018-11-11T05:50:14.544Z,11.27
2018-11-11T05:52:44.845Z,11.43
2018-11-11T05:55:14.201Z,12.63
2018-11-11T05:57:43.600Z,13.10
2018-11-11T06:00:14.555Z,10.23
2018-11-11T06:02:44.628Z,13.83
2018-11-11T06:05:15.059Z,12.28
2018-11-11T06:07:44.639Z,13.00
2018-11-11T06:10:15.076Z,10.67
2018-11-11T06:12:44.632Z,12.23
2018-11-11T06:15:14.688Z,10.80
2018-11-11T06:17:44.191Z,10.70
2018-11-11T06:20:15.902Z,12.00
2018-11-11T06:22:45.456Z,10.87
2018-11-11T06:27:42.423Z,9.43
2018-11-11T06:30:12.546Z,11.35
2018-11-11T06:32:42.152Z,12.63
2018-11-11T06:35:12.208Z,10.05
2018-11-11T06:37:42.068Z,9.60
2018-11-11T06:40:12.925Z,13.43
2018-11-11T06:42:42.810Z,11.15
2018-11-11T06:45:13.502Z,10.60
2018-11-11T06:47:43.560Z,11.60
2018-11-11T06:50:13.997Z,9.75
2018-11-11T06:52:43.805Z,11.50
2018-11-11T06:55:13.375Z,10.32
2018-11-11T06:57:42.729Z,8.73
2018-11-11T07:00:14.068Z,10.40
2018-11-11T07:03:00.370Z,10.03
2018-11-11T07:05:29.702Z,10.37
2018-11-11T07:07:59.022Z,9.77
2018-11-11T07:10:28.374Z,7.93
2018-11-11T07:12:57.691Z,9.03
2018-11-11T07:15:27.031Z,11.87
2018-11-11T07:17:56.374Z,12.83
2018-11-11T07:20:25.703Z,9.90
2018-11-11T07:22:55.045Z,10.87
2018-11-11T07:25:24.390Z,10.50
2018-11-11T07:27:53.716Z,9.93
2018-11-11T07:30:23.077Z,11.13
2018-11-11T07:32:52.418Z,10.37
2018-11-11T07:35:21.792Z,12.68
2018-11-11T07:37:51.189Z,13.27
2018-11-11T07:40:20.518Z,14.20
2018-11-11T07:42:49.895Z,9.33
2018-11-11T07:45:19.218Z,11.88
2018-11-11T07:47:48.568Z,10.60
2018-11-11T07:50:17.888Z,13.65
2018-11-11T07:52:47.222Z,8.40
2018-11-11T07:55:16.678Z,10.67
2018-11-11T07:57:45.959Z,8.17
2018-11-11T08:00:15.362Z,13.68
2018-11-11T08:02:44.922Z,8.77
2018-11-11T08:05:14.270Z,10.45
2018-11-11T08:07:43.625Z,11.93
2018-11-11T08:10:37.517Z,7.83
2018-11-11T08:13:06.877Z,13.30
2018-11-11T08:15:36.237Z,8.87
2018-11-11T08:18:06.912Z,11.10
2018-11-11T08:20:36.249Z,10.00
2018-11-11T08:23:06.097Z,7.53
2018-11-11T08:25:35.545Z,10.67
2018-11-11T08:33:07.226Z,8.53
2018-11-11T08:35:36.568Z,13.07
2018-11-11T08:38:06.037Z,5.90
2018-11-11T08:40:35.463Z,12.23
2018-11-11T08:43:06.180Z,7.30
2018-11-11T08:45:35.544Z,8.47
2018-11-11T08:48:04.983Z,6.07
2018-11-11T08:50:34.270Z,6.58
2018-11-11T08:53:03.599Z,6.07
2018-11-11T08:55:32.942Z,8.43
2018-11-11T08:58:02.290Z,7.03
2018-11-11T09:00:31.643Z,3.93
2018-11-11T09:03:00.972Z,5.58
2018-11-11T09:05:30.303Z,7.05
2018-11-11T09:07:59.689Z,6.47
2018-11-11T09:10:29.045Z,7.80
2018-11-11T09:12:58.357Z,3.20
2018-11-11T09:15:27.691Z,4.40
2018-11-11T09:17:57.064Z,3.00
2018-11-11T09:20:26.405Z,10.48
2018-11-11T09:22:55.758Z,7.40
2018-11-11T09:25:25.211Z,5.30
2018-11-11T09:27:54.550Z,4.70
2018-11-11T09:30:24.087Z,5.67
2018-11-11T09:32:53.368Z,6.37
2018-11-11T09:35:22.862Z,4.67
2018-11-11T09:37:52.158Z,8.20
2018-11-11T09:40:21.545Z,8.45
2018-11-11T09:42:50.950Z,4.50
2018-11-11T09:45:20.615Z,5.27
2018-11-11T09:47:49.986Z,6.90
2018-11-11T09:50:19.396Z,7.13
2018-11-11T09:52:48.876Z,7.33
2018-11-11T09:55:18.157Z,5.90
2018-11-11T09:57:47.523Z,7.20
2018-11-11T10:00:18.367Z,5.87
2018-11-11T10:04:55.508Z,9.10
2018-11-11T10:08:27.208Z,7.77
2018-11-11T10:13:03.304Z,5.63
2018-11-11T10:15:44.228Z,8.87
2018-11-11T10:18:20.036Z,5.10
2018-11-11T10:21:01.363Z,7.80
2018-11-11T10:23:34.650Z,8.47
2018-11-11T10:26:15.118Z,6.60
2018-11-11T10:28:50.291Z,6.60
2018-11-11T10:31:25.115Z,10.63
2018-11-11T10:33:59.672Z,6.00
2018-11-11T10:36:32.061Z,7.17
2018-11-11T10:39:05.319Z,6.78
2018-11-11T10:41:39.124Z,7.07
2018-11-11T10:44:13.956Z,6.80
2018-11-11T10:46:52.798Z,8.63
2018-11-11T10:49:25.827Z,8.70
2018-11-11T10:51:55.210Z,8.13
2018-11-11T10:54:24.628Z,5.50
2018-11-11T10:56:53.904Z,6.50
2018-11-11T10:59:23.224Z,6.63
2018-11-11T11:01:57.725Z,6.03
2018-11-11T11:04:27.078Z,5.87
2018-11-11T11:07:03.383Z,5.83
2018-11-11T11:09:32.785Z,6.23
2018-11-11T11:12:02.130Z,8.77
2018-11-11T11:14:31.504Z,6.63
2018-11-11T11:17:00.861Z,3.97
2018-11-11T11:19:30.232Z,9.97
2018-11-11T11:21:59.615Z,6.00
2018-11-11T11:24:28.962Z,5.27
2018-11-11T11:26:58.306Z,4.42
2018-11-11T11:29:27.685Z,4.47
2018-11-11T11:31:57.049Z,4.50
2018-11-11T11:34:26.357Z,4.20
2018-11-11T11:36:55.713Z,4.30
2018-11-11T11:39:25.069Z,7.07
2018-11-11T11:41:54.525Z,4.80
2018-11-11T11:44:23.882Z,7.50
2018-11-11T11:46:53.417Z,6.75
2018-11-11T11:49:22.730Z,7.00
2018-11-11T11:51:52.070Z,8.40
2018-11-11T11:54:21.379Z,5.00
2018-11-11T11:56:50.786Z,5.83
2018-11-11T11:59:20.153Z,3.92
2018-11-11T12:01:49.493Z,4.00
2018-11-11T12:04:18.869Z,5.58
2018-11-11T12:06:48.230Z,4.60
2018-11-11T12:09:17.754Z,6.80
2018-11-11T12:11:47.004Z,5.97
2018-11-11T12:14:16.379Z,5.30
2018-11-11T12:16:45.835Z,6.97
2018-11-11T12:19:15.151Z,4.50
2018-11-11T12:21:44.550Z,3.60
2018-11-11T12:24:13.863Z,5.05
2018-11-11T12:26:43.236Z,5.15
2018-11-11T12:29:12.601Z,5.33
2018-11-11T12:31:41.995Z,4.00
2018-11-11T12:34:11.345Z,4.50
2018-11-11T12:36:41.027Z,5.60
2018-11-11T12:39:12.234Z,4.22
2018-11-11T12:41:41.534Z,4.43
2018-11-11T12:44:11.499Z,5.53
2018-11-11T12:46:41.009Z,6.17
2018-11-11T12:49:10.552Z,6.00
2018-11-11T12:51:39.846Z,4.17
2018-11-11T12:54:09.204Z,3.93
2018-11-11T12:56:38.574Z,4.43
2018-11-11T12:59:07.936Z,5.47
2018-11-11T13:01:37.275Z,5.73
2018-11-11T13:04:06.796Z,5.50
2018-11-11T13:06:36.152Z,4.50
2018-11-11T13:09:09.371Z,5.40
2018-11-11T13:11:38.859Z,3.93
2018-11-11T13:14:09.467Z,3.93
2018-11-11T13:16:38.957Z,3.80
2018-11-11T13:19:08.315Z,5.00
2018-11-11T13:21:37.642Z,4.37
2018-11-11T13:24:07.359Z,4.83
2018-11-11T13:26:36.722Z,6.47
2018-11-11T13:29:06.263Z,4.87
2018-11-11T13:31:35.631Z,3.63
2018-11-11T13:34:07.788Z,5.23
2018-11-11T13:36:37.808Z,3.13
2018-11-11T13:39:11.257Z,5.80
2018-11-11T13:41:40.660Z,6.53
2018-11-11T13:44:10.168Z,4.33
2018-11-11T13:46:39.818Z,4.30
2018-11-11T13:49:09.022Z,8.03
2018-11-11T13:51:38.555Z,5.53
2018-11-11T13:54:08.033Z,7.07
2018-11-11T13:56:37.552Z,3.50
2018-11-11T13:59:07.101Z,5.17
2018-11-11T14:01:36.480Z,2.77
2018-11-11T14:04:06.434Z,5.53
2018-11-11T14:06:35.801Z,4.50
2018-11-11T14:09:12.306Z,7.37
2018-11-11T14:11:41.833Z,7.27
2018-11-11T14:14:11.185Z,5.83
2018-11-11T14:16:40.513Z,5.83
2018-11-11T14:19:10.266Z,5.43
2018-11-11T14:21:39.178Z,6.83
2018-11-11T14:24:08.512Z,4.83
2018-11-11T14:26:38.261Z,5.87
2018-11-11T14:29:07.658Z,5.17
2018-11-11T14:31:37.030Z,7.43
2018-11-11T14:34:06.969Z,5.83
2018-11-11T14:36:36.450Z,7.33
2018-11-11T14:39:11.336Z,9.15
2018-11-11T14:41:41.419Z,7.00
2018-11-11T14:44:10.919Z,7.60
2018-11-11T14:46:40.901Z,7.00
2018-11-11T14:49:10.777Z,5.58
2018-11-11T14:51:40.109Z,5.37
2018-11-11T14:54:09.792Z,6.47
2018-11-11T14:56:39.946Z,6.53
2018-11-11T14:59:09.299Z,5.72
2018-11-11T15:01:38.653Z,7.13
2018-11-11T15:04:08.099Z,14.03
2018-11-11T15:06:37.469Z,5.67
2018-11-11T15:09:10.853Z,5.17
2018-11-11T15:11:40.620Z,8.13
2018-11-11T15:14:10.344Z,9.17
2018-11-11T15:16:39.676Z,7.33
2018-11-11T15:19:09.180Z,9.43
2018-11-11T15:21:38.464Z,3.70
2018-11-11T15:24:07.806Z,5.53
2018-11-11T15:26:48.502Z,8.90
2018-11-11T15:29:17.850Z,5.80
2018-11-11T15:31:47.211Z,6.23
2018-11-11T15:34:16.543Z,9.07
2018-11-11T15:36:45.911Z,6.50
2018-11-11T15:39:15.230Z,8.57
2018-11-11T15:41:45.406Z,7.67
2018-11-11T15:44:18.516Z,9.50
2018-11-11T15:46:47.866Z,6.80
2018-11-11T15:49:17.194Z,7.23
2018-11-11T15:51:46.596Z,7.30
2018-11-11T15:54:15.985Z,9.73
2018-11-11T15:56:45.385Z,5.17
2018-11-11T15:59:14.729Z,6.87
2018-11-11T16:01:52.264Z,9.33
2018-11-11T16:04:21.603Z,7.50
2018-11-11T16:06:50.997Z,6.57
2018-11-11T16:09:20.329Z,4.97
2018-11-11T16:11:49.684Z,12.83
2018-11-11T16:14:19.034Z,8.47
2018-11-11T16:16:48.432Z,6.03
2018-11-11T16:19:18.461Z,11.50
2018-11-11T16:21:47.829Z,8.37
2018-11-11T16:24:17.157Z,6.50
2018-11-11T16:26:46.513Z,10.40
2018-11-11T16:29:16.072Z,9.40
2018-11-11T16:31:46.335Z,10.03
2018-11-11T16:34:16.014Z,10.87
2018-11-11T16:36:46.112Z,15.90
2018-11-11T16:39:17.589Z,8.83
2018-11-11T16:41:46.873Z,7.00
2018-11-11T16:44:16.185Z,5.95
2018-11-11T16:46:45.522Z,8.13
2018-11-11T16:49:14.934Z,9.40
2018-11-11T16:51:44.335Z,6.83
2018-11-11T16:54:19.322Z,6.97
2018-11-11T16:56:48.857Z,6.57
2018-11-11T16:59:18.580Z,7.97
2018-11-11T17:01:48.212Z,7.93
2018-11-11T17:04:17.826Z,6.17
2018-11-11T17:06:47.382Z,7.57
2018-11-11T17:11:58.478Z,7.43
2018-11-11T17:14:28.046Z,7.57
2018-11-11T17:16:57.591Z,8.90
2018-11-11T17:19:27.154Z,5.13
2018-11-11T17:21:56.867Z,6.13
2018-11-11T17:24:26.371Z,7.37
2018-11-11T17:26:55.983Z,5.97
2018-11-11T17:29:31.424Z,7.50
2018-11-11T17:32:00.963Z,6.13
2018-11-11T17:34:30.630Z,5.03
2018-11-11T17:37:00.288Z,6.73
2018-11-11T17:39:33.136Z,4.87
2018-11-11T17:42:02.778Z,9.73
2018-11-11T17:44:32.317Z,4.87
2018-11-11T17:47:01.847Z,6.73
2018-11-11T17:49:31.490Z,6.63
2018-11-11T17:52:00.967Z,6.17
2018-11-11T17:54:30.576Z,7.57
2018-11-11T17:57:00.183Z,5.50
2018-11-11T17:59:29.754Z,6.77
2018-11-11T18:01:59.288Z,7.10
2018-11-11T18:04:31.121Z,4.73
2018-11-11T18:07:00.793Z,5.17
2018-11-11T18:09:30.370Z,3.60
2018-11-11T18:12:00.091Z,5.83
2018-11-11T18:14:29.691Z,5.57
2018-11-11T18:19:28.425Z,5.53
2018-11-11T18:22:01.566Z,3.67
2018-11-11T18:24:31.179Z,6.33
2018-11-11T18:27:00.963Z,5.37
2018-11-11T18:29:30.405Z,5.22
2018-11-11T18:31:59.993Z,3.63
2018-11-11T18:34:29.533Z,3.33
2018-11-11T18:36:59.184Z,6.20
2018-11-11T18:39:32.412Z,3.80
2018-11-11T18:42:02.149Z,5.50
2018-11-11T18:44:31.827Z,4.90
2018-11-11T18:47:01.165Z,2.90
2018-11-11T18:49:30.504Z,6.73
2018-11-11T18:51:59.851Z,3.03
2018-11-11T18:54:29.196Z,5.03
2018-11-11T18:56:58.649Z,4.07
2018-11-11T18:59:28.044Z,5.47
2018-11-11T19:01:57.404Z,7.47
2018-11-11T19:04:26.776Z,4.70
2018-11-11T19:06:56.154Z,4.03
2018-11-11T19:09:25.676Z,6.63
2018-11-11T19:11:54.986Z,5.10
2018-11-11T19:14:27.632Z,5.83
2018-11-11T19:17:01.503Z,6.70
2018-11-11T19:19:30.860Z,7.10
2018-11-11T19:22:00.256Z,5.63
2018-11-11T19:24:29.893Z,7.43
2018-11-11T19:26:59.183Z,6.77
2018-11-11T19:29:28.557Z,6.10
2018-11-11T19:31:57.951Z,10.70
2018-11-11T19:34:30.604Z,10.63
2018-11-11T19:37:02.791Z,8.67
2018-11-11T19:39:35.264Z,8.13
2018-11-11T19:42:07.891Z,9.20
2018-11-11T19:44:39.774Z,8.78
2018-11-11T19:47:11.122Z,8.67
2018-11-11T19:49:40.947Z,9.73
2018-11-11T19:52:11.175Z,8.85
2018-11-11T19:54:40.800Z,8.37
2018-11-11T19:57:11.324Z,10.48
2018-11-11T19:59:40.874Z,9.73
2018-11-11T20:02:10.576Z,8.73
2018-11-11T20:04:40.259Z,11.10
2018-11-11T20:07:11.229Z,9.10
2018-11-11T20:09:42.318Z,10.37
2018-11-11T20:12:12.063Z,8.45
2018-11-11T20:14:41.741Z,8.73
2018-11-11T20:17:11.359Z,8.03
2018-11-11T20:19:41.003Z,10.27
2018-11-11T20:22:10.692Z,9.15
2018-11-11T20:24:40.402Z,7.47
2018-11-11T20:27:09.978Z,7.13
2018-11-11T20:29:39.572Z,9.05
2018-11-11T20:32:09.102Z,7.17
2018-11-11T20:34:38.640Z,7.25
2018-11-11T20:37:08.280Z,7.08
2018-11-11T20:39:37.826Z,7.77
2018-11-11T20:42:07.825Z,8.33
2018-11-11T20:44:37.354Z,6.60
2018-11-11T20:47:06.937Z,8.50
2018-11-11T20:49:36.557Z,7.55
2018-11-11T20:52:06.854Z,8.00
2018-11-11T20:54:36.482Z,9.37
2018-11-11T20:57:06.750Z,10.13
2018-11-11T20:59:41.820Z,9.13
2018-11-11T21:02:11.456Z,10.67
2018-11-11T21:04:41.050Z,9.97
2018-11-11T21:07:10.752Z,9.55
2018-11-11T21:09:40.316Z,11.60
2018-11-11T21:12:09.955Z,12.83
2018-11-11T21:14:39.532Z,9.95
2018-11-11T21:17:11.242Z,11.40
2018-11-11T21:19:40.751Z,11.97
2018-11-11T21:22:14.598Z,13.25
2018-11-11T21:24:44.239Z,12.63
2018-11-11T21:27:13.847Z,15.83
2018-11-11T21:29:44.175Z,14.03
2018-11-11T21:32:13.835Z,11.83
2018-11-11T21:34:43.620Z,11.53
2018-11-11T21:37:13.265Z,13.77
2018-11-11T21:39:42.941Z,14.20
2018-11-11T21:44:37.759Z,12.93
2018-11-11T21:47:07.392Z,16.00
2018-11-11T21:49:45.166Z,12.93
2018-11-11T21:52:14.803Z,16.67
2018-11-11T21:54:44.578Z,13.03
2018-11-11T21:57:14.278Z,13.07
2018-11-11T21:59:46.144Z,13.43
2018-11-11T22:02:15.567Z,13.70
2018-11-11T22:04:48.075Z,13.40
2018-11-11T22:07:20.353Z,13.93
2018-11-11T22:09:49.763Z,12.73
2018-11-11T22:12:19.432Z,15.27
2018-11-11T22:14:49.046Z,18.87
2018-11-11T22:17:18.696Z,14.50
2018-11-11T22:19:49.369Z,14.30
2018-11-11T22:22:18.832Z,15.50
2018-11-11T22:24:48.181Z,15.17
2018-11-11T22:27:17.550Z,18.73
2018-11-11T22:29:46.948Z,15.87
2018-11-11T22:32:16.312Z,13.93
2018-11-11T22:34:45.688Z,13.37
2018-11-11T22:37:15.071Z,14.47
2018-11-11T22:39:44.424Z,15.70
2018-11-11T22:42:13.929Z,13.90
2018-11-11T22:44:45.266Z,14.17
2018-11-11T22:47:14.987Z,13.93
2018-11-11T22:49:45.726Z,16.80
2018-11-11T22:52:16.229Z,15.60
2018-11-11T22:54:45.751Z,15.00
2018-11-11T22:57:15.110Z,17.67
2018-11-11T22:59:44.510Z,15.47
2018-11-11T23:02:13.882Z,17.15
2018-11-11T23:04:43.264Z,14.63
2018-11-11T23:07:12.595Z,15.93
2018-11-11T23:09:41.955Z,13.10
2018-11-11T23:12:11.410Z,16.47
2018-11-11T23:14:40.805Z,18.00
2018-11-11T23:17:10.190Z,19.17
2018-11-11T23:19:39.533Z,19.03
2018-11-11T23:22:08.899Z,15.60
2018-11-11T23:24:50.015Z,15.83
2018-11-11T23:27:19.358Z,15.63
2018-11-11T23:29:48.682Z,13.83
2018-11-11T23:32:18.051Z,17.90
2018-11-11T23:34:47.442Z,19.97
2018-11-11T23:37:16.759Z,20.13
2018-11-11T23:39:46.074Z,19.73
2018-11-11T23:42:15.411Z,15.43
2018-11-11T23:44:44.781Z,17.80
2018-11-11T23:47:14.164Z,18.73
2018-11-11T23:49:43.857Z,20.23
2018-11-11T23:52:13.171Z,19.83
2018-11-11T23:54:42.515Z,22.87
2018-11-11T23:57:11.877Z,19.97
2018-11-11T23:59:41.238Z,18.73
